createdAt,value
2023-03-06T00:01:32.010Z,100914.69
2023-03-06T00:04:01.758Z,100916.31
2023-03-06T00:06:31.772Z,100916.78
2023-03-06T00:09:01.454Z,100914.25
2023-03-06T00:11:31.081Z,100914.69
2023-03-06T00:14:00.952Z,100916.31
2023-03-06T00:16:30.610Z,100920.66
2023-03-06T00:19:00.241Z,100928.34
2023-03-06T00:21:29.997Z,100927.09
2023-03-06T00:23:59.676Z,100909.56
2023-03-06T00:26:29.353Z,100929.19
2023-03-06T00:28:59.400Z,100932.34
2023-03-06T00:31:29.161Z,100924.28
2023-03-06T00:33:58.762Z,100934.81
2023-03-06T00:36:28.500Z,100926.09
2023-03-06T00:38:58.129Z,100923.28
2023-03-06T00:41:28.698Z,100900.13
2023-03-06T00:43:58.394Z,100891.19
2023-03-06T00:46:28.100Z,100926.91
2023-03-06T00:48:57.836Z,100913.25
2023-03-06T00:51:27.501Z,100911.31
2023-03-06T00:53:57.127Z,100908.88
2023-03-06T00:56:27.289Z,100910.16
2023-03-06T00:58:56.920Z,100914.13
2023-03-06T01:01:26.549Z,100899.34
2023-03-06T01:03:56.415Z,100900.84
2023-03-06T01:06:26.484Z,100905.28
2023-03-06T01:08:56.136Z,100891.59
2023-03-06T01:11:26.109Z,100887.69
2023-03-06T01:13:56.031Z,100888.44
2023-03-06T01:16:26.105Z,100894.94
2023-03-06T01:18:55.754Z,100888.13
2023-03-06T01:21:25.825Z,100882.88
2023-03-06T01:23:55.453Z,100884.50
2023-03-06T01:26:25.181Z,100885.31
2023-03-06T01:28:54.750Z,100884.88
2023-03-06T01:31:24.421Z,100876.00
2023-03-06T01:33:54.483Z,100877.63
2023-03-06T01:36:24.228Z,100868.91
2023-03-06T01:38:53.819Z,100875.06
2023-03-06T01:41:23.527Z,100865.38
2023-03-06T01:43:53.543Z,100860.50
2023-03-06T01:46:33.763Z,100858.69
2023-03-06T01:49:27.338Z,100858.22
2023-03-06T01:52:05.610Z,100854.97
2023-03-06T01:54:57.444Z,100850.16
2023-03-06T01:57:40.597Z,100847.06
2023-03-06T02:00:15.819Z,100845.00
2023-03-06T02:02:51.947Z,100847.06
2023-03-06T02:05:22.190Z,100846.53
2023-03-06T02:07:52.949Z,100846.31
2023-03-06T02:10:23.525Z,100837.03
2023-03-06T02:12:54.101Z,100844.69
2023-03-06T02:15:27.889Z,100846.31
2023-03-06T02:17:57.974Z,100839.91
2023-03-06T02:20:41.356Z,100838.78
2023-03-06T02:23:33.963Z,100801.34
2023-03-06T02:26:04.975Z,100831.09
2023-03-06T02:28:34.549Z,100830.72
2023-03-06T02:31:04.394Z,100824.44
2023-03-06T02:33:34.259Z,100819.19
2023-03-06T02:36:08.927Z,100815.13
2023-03-06T02:38:52.419Z,100811.59
2023-03-06T02:41:22.076Z,100803.91
2023-03-06T02:43:54.092Z,100800.72
2023-03-06T02:46:23.713Z,100799.16
2023-03-06T02:48:53.335Z,100800.03
2023-03-06T02:51:23.196Z,100801.66
2023-03-06T02:53:52.976Z,100784.81
2023-03-06T02:56:22.978Z,100783.31
2023-03-06T02:58:53.620Z,100781.84
2023-03-06T03:01:23.777Z,100770.47
2023-03-06T03:03:53.466Z,100765.66
2023-03-06T03:06:23.088Z,100758.03
2023-03-06T03:08:52.714Z,100761.59
2023-03-06T03:11:22.345Z,100741.81
2023-03-06T03:13:51.931Z,100751.97
2023-03-06T03:16:21.746Z,100738.38
2023-03-06T03:18:52.590Z,100744.00
2023-03-06T03:21:22.309Z,100743.50
2023-03-06T03:23:51.957Z,100736.38
2023-03-06T03:26:23.630Z,100726.31
2023-03-06T03:28:53.240Z,100701.88
2023-03-06T03:31:22.871Z,100717.28
2023-03-06T03:33:52.634Z,100721.34
2023-03-06T03:36:22.275Z,100714.44
2023-03-06T03:38:51.900Z,100708.94
2023-03-06T03:41:21.650Z,100710.53
2023-03-06T03:43:51.273Z,100718.53
2023-03-06T03:46:22.123Z,100707.31
2023-03-06T03:48:51.699Z,100698.50
2023-03-06T03:51:22.113Z,100692.44
2023-03-06T03:53:51.994Z,100694.19
2023-03-06T03:56:21.935Z,100675.97
2023-03-06T03:58:51.492Z,100679.38
2023-03-06T04:01:21.395Z,100683.75
2023-03-06T04:03:50.958Z,100677.38
2023-03-06T04:06:21.066Z,100671.38
2023-03-06T04:08:50.677Z,100643.97
2023-03-06T04:11:20.323Z,100657.50
2023-03-06T04:13:49.938Z,100646.69
2023-03-06T04:16:19.729Z,100647.59
2023-03-06T04:18:49.385Z,100642.81
2023-03-06T04:21:19.026Z,100630.38
2023-03-06T04:23:48.658Z,100624.38
2023-03-06T04:26:18.296Z,100623.66
2023-03-06T04:28:47.898Z,100620.09
2023-03-06T04:31:17.812Z,100609.28
2023-03-06T04:33:47.340Z,100623.78
2023-03-06T04:36:35.623Z,100593.63
2023-03-06T04:39:05.527Z,100591.63
2023-03-06T04:41:35.246Z,100592.59
2023-03-06T04:44:05.110Z,100590.25
2023-03-06T04:46:35.038Z,100579.84
2023-03-06T04:49:05.756Z,100578.28
2023-03-06T04:51:38.312Z,100567.06
2023-03-06T04:54:08.089Z,100565.06
2023-03-06T04:56:37.988Z,100561.56
2023-03-06T04:59:07.592Z,100556.34
2023-03-06T05:01:37.556Z,100552.84
2023-03-06T05:04:07.438Z,100549.69
2023-03-06T05:06:37.086Z,100542.88
2023-03-06T05:09:06.715Z,100538.44
2023-03-06T05:11:36.362Z,100540.13
2023-03-06T05:14:06.027Z,100540.13
2023-03-06T05:16:35.697Z,100519.63
2023-03-06T05:19:05.378Z,100516.03
2023-03-06T05:21:35.112Z,100522.97
2023-03-06T05:24:04.664Z,100525.81
2023-03-06T05:26:35.451Z,100521.41
2023-03-06T05:29:05.001Z,100515.44
2023-03-06T05:31:34.759Z,100513.03
2023-03-06T05:34:04.381Z,100521.13
2023-03-06T05:36:34.586Z,100517.09
2023-03-06T05:39:04.151Z,100515.19
2023-03-06T05:41:33.853Z,100515.22
2023-03-06T05:44:03.876Z,100511.66
2023-03-06T05:46:33.726Z,100507.66
2023-03-06T05:49:03.355Z,100506.84
2023-03-06T05:51:33.373Z,100506.88
2023-03-06T05:54:03.013Z,100502.88
2023-03-06T05:56:32.594Z,100495.28
2023-03-06T05:59:02.433Z,100497.72
2023-03-06T06:01:32.053Z,100490.91
2023-03-06T06:04:01.664Z,100486.06
2023-03-06T06:06:31.304Z,100499.38
2023-03-06T06:09:00.927Z,100499.38
2023-03-06T06:11:30.479Z,100499.81
2023-03-06T06:14:00.244Z,100495.81
2023-03-06T06:16:31.186Z,100494.25
2023-03-06T06:19:00.824Z,100493.84
2023-03-06T06:21:30.484Z,100492.66
2023-03-06T06:24:00.143Z,100493.88
2023-03-06T06:26:29.848Z,100464.44
2023-03-06T06:29:00.357Z,100484.22
2023-03-06T06:31:30.186Z,100487.84
2023-03-06T06:33:59.976Z,100477.78
2023-03-06T06:36:29.634Z,100486.25
2023-03-06T06:38:59.392Z,100478.19
2023-03-06T06:44:20.651Z,100482.28
2023-03-06T06:49:41.236Z,100478.25
2023-03-06T06:52:11.004Z,100471.00
2023-03-06T06:54:40.694Z,100473.81
2023-03-06T06:57:11.819Z,100483.50
2023-03-06T06:59:41.485Z,100482.28
2023-03-06T07:02:14.634Z,100486.72
2023-03-06T07:05:00.235Z,100482.28
2023-03-06T07:07:32.700Z,100488.34
2023-03-06T07:10:02.282Z,100475.03
2023-03-06T07:12:34.311Z,100482.28
2023-03-06T07:15:04.039Z,100473.81
2023-03-06T07:17:33.807Z,100470.19
2023-03-06T07:20:03.397Z,100452.47
2023-03-06T07:22:41.562Z,100474.63
2023-03-06T07:25:20.229Z,100475.06
2023-03-06T07:27:53.709Z,100480.72
2023-03-06T07:30:27.463Z,100487.19
2023-03-06T07:32:58.710Z,100480.34
2023-03-06T07:35:28.499Z,100484.78
2023-03-06T07:37:58.188Z,100475.06
2023-03-06T07:40:27.976Z,100471.44
2023-03-06T07:43:16.839Z,100475.06
2023-03-06T07:45:48.711Z,100483.09
2023-03-06T07:48:18.332Z,100471.81
2023-03-06T07:50:47.901Z,100462.94
2023-03-06T07:53:17.506Z,100461.34
2023-03-06T07:55:47.166Z,100454.47
2023-03-06T07:58:16.911Z,100461.34
2023-03-06T08:00:46.546Z,100469.00
2023-03-06T08:03:17.052Z,100464.97
2023-03-06T08:05:47.047Z,100457.69
2023-03-06T08:08:16.820Z,100469.78
2023-03-06T08:10:50.709Z,100463.75
2023-03-06T08:13:20.446Z,100462.94
2023-03-06T08:15:51.049Z,100452.47
2023-03-06T08:18:20.623Z,100462.53
2023-03-06T08:20:50.202Z,100460.53
2023-03-06T08:23:19.791Z,100458.09
2023-03-06T08:25:56.911Z,100458.91
2023-03-06T08:28:26.950Z,100460.06
2023-03-06T08:30:57.749Z,100464.50
2023-03-06T08:33:27.401Z,100468.53
2023-03-06T08:35:57.033Z,100464.50
2023-03-06T08:38:26.688Z,100456.44
2023-03-06T08:40:56.261Z,100463.69
2023-03-06T08:43:25.952Z,100453.63
2023-03-06T08:46:00.250Z,100463.69
2023-03-06T08:48:30.218Z,100443.53
2023-03-06T08:50:59.991Z,100458.44
2023-03-06T08:53:42.218Z,100455.59
2023-03-06T08:56:25.065Z,100462.84
2023-03-06T08:58:55.364Z,100466.88
2023-03-06T09:01:28.055Z,100466.88
2023-03-06T09:04:00.005Z,100473.28
2023-03-06T09:06:33.818Z,100474.84
2023-03-06T09:09:03.997Z,100476.03
2023-03-06T09:11:34.221Z,100476.44
2023-03-06T09:14:04.008Z,100468.41
2023-03-06T09:16:34.216Z,100468.00
2023-03-06T09:19:03.868Z,100461.91
2023-03-06T09:21:33.564Z,100469.19
2023-03-06T09:24:03.300Z,100467.16
2023-03-06T09:26:44.970Z,100473.59
2023-03-06T09:29:17.755Z,100470.38
2023-03-06T09:31:47.968Z,100461.50
2023-03-06T09:34:17.589Z,100463.94
2023-03-06T09:36:56.411Z,100460.28
2023-03-06T09:39:27.797Z,100461.91
2023-03-06T09:42:01.437Z,100453.03
2023-03-06T09:44:35.888Z,100461.50
2023-03-06T09:47:11.793Z,100458.66
2023-03-06T09:50:00.131Z,100460.63
2023-03-06T09:52:40.118Z,100457.41
2023-03-06T09:55:39.787Z,100457.00
2023-03-06T09:58:20.206Z,100443.69
2023-03-06T10:01:18.027Z,100446.50
2023-03-06T10:04:11.728Z,100455.34
2023-03-06T10:06:51.158Z,100456.13
2023-03-06T10:09:55.392Z,100463.78
2023-03-06T10:12:30.321Z,100459.34
2023-03-06T10:15:17.132Z,100464.94
2023-03-06T10:17:47.454Z,100453.69
2023-03-06T10:20:23.086Z,100452.84
2023-03-06T10:23:23.692Z,100452.47
2023-03-06T10:26:05.350Z,100459.69
2023-03-06T10:28:49.668Z,100461.28
2023-03-06T10:31:28.164Z,100464.06
2023-03-06T10:34:19.828Z,100458.88
2023-03-06T10:36:49.455Z,100450.41
2023-03-06T10:39:21.775Z,100461.63
2023-03-06T10:41:52.598Z,100463.97
2023-03-06T10:44:25.020Z,100464.78
2023-03-06T10:46:56.143Z,100461.16
2023-03-06T10:49:39.632Z,100449.88
2023-03-06T10:52:21.264Z,100457.84
2023-03-06T10:54:51.182Z,100459.88
2023-03-06T10:57:32.610Z,100453.84
2023-03-06T11:00:08.189Z,100455.84
2023-03-06T11:02:42.397Z,100459.88
2023-03-06T11:05:22.721Z,100459.06
2023-03-06T11:07:57.705Z,100456.13
2023-03-06T11:10:28.222Z,100458.94
2023-03-06T11:13:23.483Z,100462.97
2023-03-06T11:16:00.973Z,100467.78
2023-03-06T11:18:44.313Z,100466.97
2023-03-06T11:21:32.502Z,100470.94
2023-03-06T11:24:20.389Z,100463.69
2023-03-06T11:27:02.113Z,100471.34
2023-03-06T11:29:46.636Z,100469.63
2023-03-06T11:32:34.375Z,100480.97
2023-03-06T11:35:12.016Z,100480.56
2023-03-06T11:37:48.511Z,100481.72
2023-03-06T11:40:28.999Z,100495.00
2023-03-06T11:43:19.931Z,100493.38
2023-03-06T11:46:16.828Z,100498.19
2023-03-06T11:48:56.390Z,100496.97
2023-03-06T11:51:35.260Z,100499.81
2023-03-06T11:54:05.370Z,100502.19
2023-03-06T11:56:58.631Z,100515.84
2023-03-06T11:59:28.312Z,100516.56
2023-03-06T12:02:21.777Z,100522.59
2023-03-06T12:05:13.015Z,100526.63
2023-03-06T12:08:10.347Z,100527.06
2023-03-06T12:11:02.188Z,100530.22
2023-03-06T12:13:40.542Z,100533.84
2023-03-06T12:16:25.891Z,100534.25
2023-03-06T12:19:04.521Z,100534.63
2023-03-06T12:21:34.219Z,100536.97
2023-03-06T12:24:31.388Z,100541.38
2023-03-06T12:27:03.144Z,100539.34
2023-03-06T12:29:42.129Z,100543.78
2023-03-06T12:32:23.677Z,100549.41
2023-03-06T12:35:14.052Z,100548.59
2023-03-06T12:37:46.622Z,100549.75
2023-03-06T12:40:34.584Z,100545.28
2023-03-06T12:43:22.195Z,100552.59
2023-03-06T12:46:00.461Z,100545.75
2023-03-06T12:48:35.955Z,100557.38
2023-03-06T12:51:09.743Z,100553.00
2023-03-06T12:53:42.069Z,100555.78
2023-03-06T12:56:15.817Z,100554.16
2023-03-06T12:58:55.785Z,100551.75
2023-03-06T13:01:39.445Z,100554.22
2023-03-06T13:04:36.500Z,100539.78
2023-03-06T13:07:29.339Z,100544.56
2023-03-06T13:10:11.186Z,100548.19
2023-03-06T13:12:51.345Z,100550.22
2023-03-06T13:15:39.151Z,100538.97
2023-03-06T13:18:26.804Z,100551.03
2023-03-06T13:21:00.967Z,100558.25
2023-03-06T13:23:36.975Z,100551.09
2023-03-06T13:26:12.243Z,100551.09
2023-03-06T13:28:52.006Z,100560.81
2023-03-06T13:31:35.235Z,100559.19
2023-03-06T13:34:25.044Z,100563.97
2023-03-06T13:36:54.774Z,100567.19
2023-03-06T13:39:24.418Z,100570.09
2023-03-06T13:42:01.960Z,100569.31
2023-03-06T13:44:32.322Z,100563.28
2023-03-06T13:47:21.930Z,100558.03
2023-03-06T13:49:51.682Z,100560.84
2023-03-06T13:52:45.062Z,100560.03
2023-03-06T13:55:55.966Z,100564.47
2023-03-06T13:59:14.162Z,100564.81
2023-03-06T14:01:58.920Z,100565.56
2023-03-06T14:04:56.017Z,100572.28
2023-03-06T14:07:33.061Z,100573.44
2023-03-06T14:10:11.470Z,100576.59
2023-03-06T14:12:53.035Z,100574.97
2023-03-06T14:15:32.502Z,100568.47
2023-03-06T14:18:09.283Z,100571.63
2023-03-06T14:20:41.626Z,100574.50
2023-03-06T14:23:39.576Z,100555.94
2023-03-06T14:26:21.427Z,100579.72
2023-03-06T14:29:07.102Z,100571.28
2023-03-06T14:31:42.850Z,100570.41
2023-03-06T14:34:24.307Z,100571.16
2023-03-06T14:36:56.965Z,100561.56
2023-03-06T14:39:35.245Z,100567.13
2023-03-06T14:42:18.307Z,100573.97
2023-03-06T14:45:01.812Z,100559.44
2023-03-06T14:47:37.986Z,100555.41
2023-03-06T14:50:34.543Z,100563.34
2023-03-06T14:53:30.785Z,100557.75
2023-03-06T14:56:05.076Z,100552.50
2023-03-06T14:58:44.534Z,100552.94
2023-03-06T15:01:16.136Z,100555.69
2023-03-06T15:03:50.361Z,100560.50
2023-03-06T15:06:44.151Z,100561.31
2023-03-06T15:09:18.864Z,100562.38
2023-03-06T15:11:55.972Z,100560.78
2023-03-06T15:14:50.593Z,100569.66
2023-03-06T15:17:20.148Z,100559.66
2023-03-06T15:19:58.746Z,100562.88
2023-03-06T15:22:43.018Z,100563.28
2023-03-06T15:25:29.435Z,100557.69
2023-03-06T15:28:37.440Z,100552.00
2023-03-06T15:31:17.780Z,100547.19
2023-03-06T15:34:07.873Z,100555.31
2023-03-06T15:36:43.806Z,100550.53
2023-03-06T15:39:34.559Z,100554.88
2023-03-06T15:42:15.923Z,100547.69
2023-03-06T15:44:48.575Z,100545.69
2023-03-06T15:47:18.573Z,100533.63
2023-03-06T15:49:50.556Z,100538.44
2023-03-06T15:52:21.841Z,100539.22
2023-03-06T15:54:51.954Z,100519.97
2023-03-06T15:57:32.746Z,100518.72
2023-03-06T16:00:03.484Z,100514.69
2023-03-06T16:02:33.361Z,100524.69
2023-03-06T16:05:04.137Z,100502.94
2023-03-06T16:07:33.822Z,100517.06
2023-03-06T16:10:05.112Z,100516.69
2023-03-06T16:12:36.142Z,100519.06
2023-03-06T16:15:07.722Z,100527.06
2023-03-06T16:17:37.316Z,100523.03
2023-03-06T16:20:07.783Z,100506.88
2023-03-06T16:22:37.380Z,100515.50
2023-03-06T16:25:07.407Z,100509.16
2023-03-06T16:27:37.269Z,100508.69
2023-03-06T16:30:07.885Z,100509.75
2023-03-06T16:32:37.609Z,100503.72
2023-03-06T16:35:07.432Z,100511.72
2023-03-06T16:37:36.974Z,100499.75
2023-03-06T16:40:10.975Z,100503.16
2023-03-06T16:42:40.590Z,100508.72
2023-03-06T16:45:10.866Z,100513.53
2023-03-06T16:47:40.670Z,100504.69
2023-03-06T16:50:25.599Z,100500.25
2023-03-06T16:52:56.924Z,100490.97
2023-03-06T16:55:28.565Z,100494.44
2023-03-06T16:57:59.323Z,100499.69
2023-03-06T17:00:34.682Z,100497.25
2023-03-06T17:03:04.987Z,100488.91
2023-03-06T17:05:38.975Z,100493.88
2023-03-06T17:08:08.624Z,100493.88
2023-03-06T17:10:40.961Z,100484.59
2023-03-06T17:13:12.210Z,100480.59
2023-03-06T17:15:42.299Z,100474.91
2023-03-06T17:18:11.939Z,100472.91
2023-03-06T17:20:42.236Z,100474.03
2023-03-06T17:23:12.008Z,100479.63
2023-03-06T17:25:41.571Z,100463.19
2023-03-06T17:28:12.278Z,100455.09
2023-03-06T17:30:42.258Z,100478.84
2023-03-06T17:33:11.863Z,100471.19
2023-03-06T17:35:41.607Z,100470.81
2023-03-06T17:38:11.173Z,100450.59
2023-03-06T17:40:40.817Z,100463.56
2023-03-06T17:43:10.499Z,100459.19
2023-03-06T17:45:40.063Z,100454.34
2023-03-06T17:48:09.782Z,100446.34
2023-03-06T17:50:39.435Z,100444.28
2023-03-06T17:53:09.052Z,100434.56
2023-03-06T17:55:42.085Z,100445.91
2023-03-06T17:58:12.449Z,100439.88
2023-03-06T18:00:43.288Z,100438.31
2023-03-06T18:03:12.954Z,100439.09
2023-03-06T18:05:42.623Z,100432.28
2023-03-06T18:08:12.341Z,100430.66
2023-03-06T18:10:43.738Z,100431.47
2023-03-06T18:13:13.528Z,100432.22
2023-03-06T18:15:45.605Z,100424.94
2023-03-06T18:18:15.801Z,100426.50
2023-03-06T18:20:47.219Z,100428.94
2023-03-06T18:23:20.051Z,100416.91
2023-03-06T18:25:51.843Z,100424.19
2023-03-06T18:28:21.709Z,100421.00
2023-03-06T18:30:53.366Z,100416.63
2023-03-06T18:33:25.281Z,100417.00
2023-03-06T18:36:00.041Z,100420.19
2023-03-06T18:38:32.029Z,100420.19
2023-03-06T18:41:02.834Z,100427.75
2023-03-06T18:43:36.122Z,100424.50
2023-03-06T18:46:05.695Z,100424.94
2023-03-06T18:48:36.658Z,100430.91
2023-03-06T18:51:13.252Z,100435.38
2023-03-06T18:53:45.944Z,100433.72
2023-03-06T18:56:22.544Z,100436.91
2023-03-06T18:58:53.219Z,100425.72
2023-03-06T19:01:24.825Z,100430.56
2023-03-06T19:03:54.996Z,100439.34
2023-03-06T19:06:27.571Z,100435.28
2023-03-06T19:09:04.059Z,100432.09
2023-03-06T19:11:37.208Z,100436.13
2023-03-06T19:14:09.631Z,100437.81
2023-03-06T19:16:42.763Z,100434.56
2023-03-06T19:19:14.118Z,100439.34
2023-03-06T19:21:44.842Z,100431.34
2023-03-06T19:24:15.687Z,100433.28
2023-03-06T19:26:45.973Z,100430.53
2023-03-06T19:29:17.194Z,100432.56
2023-03-06T19:31:48.211Z,100428.13
2023-03-06T19:34:19.742Z,100429.41
2023-03-06T19:36:52.789Z,100429.72
2023-03-06T19:39:22.780Z,100442.91
2023-03-06T19:41:52.680Z,100440.09
2023-03-06T19:44:26.431Z,100448.91
2023-03-06T19:47:01.540Z,100440.09
2023-03-06T19:49:32.212Z,100435.38
2023-03-06T19:52:01.935Z,100436.19
2023-03-06T19:54:32.741Z,100435.44
2023-03-06T19:57:04.406Z,100438.94
2023-03-06T19:59:34.688Z,100438.56
2023-03-06T20:02:10.935Z,100444.56
2023-03-06T20:04:43.716Z,100439.34
2023-03-06T20:07:14.381Z,100434.53
2023-03-06T20:09:46.285Z,100434.06
2023-03-06T20:12:19.626Z,100424.00
2023-03-06T20:14:49.896Z,100430.81
2023-03-06T20:17:21.165Z,100428.00
2023-03-06T20:19:53.034Z,100428.88
2023-03-06T20:22:26.268Z,100431.34
2023-03-06T20:25:00.764Z,100433.88
2023-03-06T20:27:31.870Z,100405.19
2023-03-06T20:30:02.132Z,100431.84
2023-03-06T20:32:35.709Z,100434.56
2023-03-06T20:35:07.361Z,100437.09
2023-03-06T20:37:39.667Z,100433.00
2023-03-06T20:40:10.549Z,100428.91
2023-03-06T20:42:41.103Z,100418.47
2023-03-06T20:45:22.858Z,100423.31
2023-03-06T20:47:53.034Z,100416.09
2023-03-06T20:50:23.854Z,100413.25
2023-03-06T20:53:00.519Z,100428.88
2023-03-06T20:55:31.804Z,100432.44
2023-03-06T20:58:02.775Z,100432.88
2023-03-06T21:00:33.308Z,100437.63
2023-03-06T21:03:05.841Z,100442.50
2023-03-06T21:05:36.253Z,100441.63
2023-03-06T21:08:06.029Z,100431.16
2023-03-06T21:10:35.821Z,100418.63
2023-03-06T21:13:05.395Z,100423.13
2023-03-06T21:15:35.012Z,100431.09
2023-03-06T21:18:06.726Z,100421.06
2023-03-06T21:20:39.561Z,100437.44
2023-03-06T21:23:10.036Z,100431.88
2023-03-06T21:25:48.110Z,100443.91
2023-03-06T21:28:18.194Z,100451.91
2023-03-06T21:30:49.647Z,100447.91
2023-03-06T21:33:19.356Z,100447.47
2023-03-06T21:35:49.936Z,100439.78
2023-03-06T21:38:22.495Z,100459.09
2023-03-06T21:40:52.209Z,100448.25
2023-03-06T21:43:22.315Z,100453.44
2023-03-06T21:45:54.231Z,100453.88
2023-03-06T21:48:23.867Z,100447.06
2023-03-06T21:50:53.454Z,100443.81
2023-03-06T21:53:23.058Z,100439.41
2023-03-06T21:55:56.338Z,100437.34
2023-03-06T21:58:25.385Z,100447.72
2023-03-06T22:00:55.899Z,100457.44
2023-03-06T22:03:26.278Z,100448.53
2023-03-06T22:05:56.100Z,100446.97
2023-03-06T22:08:29.669Z,100455.81
2023-03-06T22:10:59.574Z,100446.53
2023-03-06T22:13:29.780Z,100429.66
2023-03-06T22:16:00.788Z,100435.75
2023-03-06T22:18:30.562Z,100446.94
2023-03-06T22:21:00.818Z,100440.97
2023-03-06T22:23:30.464Z,100434.16
2023-03-06T22:26:05.219Z,100439.34
2023-03-06T22:28:35.582Z,100435.75
2023-03-06T22:31:13.240Z,100440.16
2023-03-06T22:33:45.300Z,100452.50
2023-03-06T22:36:17.896Z,100449.25
2023-03-06T22:38:50.293Z,100436.41
2023-03-06T22:41:21.948Z,100446.13
2023-03-06T22:43:51.783Z,100443.69
2023-03-06T22:46:21.407Z,100458.50
2023-03-06T22:48:51.171Z,100457.31
2023-03-06T22:51:22.824Z,100464.09
2023-03-06T22:53:57.221Z,100462.09
2023-03-06T22:56:27.408Z,100465.28
2023-03-06T22:58:57.184Z,100464.53
2023-03-06T23:01:30.601Z,100474.25
2023-03-06T23:04:03.098Z,100484.63
2023-03-06T23:06:38.993Z,100473.75
2023-03-06T23:09:16.310Z,100480.19
2023-03-06T23:11:46.385Z,100486.19
2023-03-06T23:14:18.891Z,100479.38
2023-03-06T23:16:48.908Z,100490.22
2023-03-06T23:19:18.867Z,100493.84
2023-03-06T23:21:48.511Z,100491.81
2023-03-06T23:24:19.938Z,100491.38
2023-03-06T23:26:49.563Z,100500.56
2023-03-06T23:29:19.183Z,100508.66
2023-03-06T23:31:50.285Z,100505.03
2023-03-06T23:34:21.340Z,100511.47
2023-03-06T23:36:51.094Z,100509.47
2023-03-06T23:39:20.654Z,100504.59
2023-03-06T23:41:50.211Z,100524.69
2023-03-06T23:44:20.276Z,100520.69
2023-03-06T23:46:49.857Z,100523.88
2023-03-06T23:49:22.042Z,100528.31
2023-03-06T23:51:51.924Z,100533.50
2023-03-06T23:54:22.079Z,100527.13
2023-03-06T23:56:51.803Z,100536.28
2023-03-06T23:59:24.579Z,100539.97
